createdAt,value
2023-03-26T00:02:13.948Z,90.80
2023-03-26T00:04:44.202Z,90.50
2023-03-26T00:07:13.149Z,90.60
2023-03-26T00:09:41.317Z,90.70
2023-03-26T00:12:09.931Z,90.60
2023-03-26T00:14:38.453Z,90.60
2023-03-26T00:17:06.382Z,90.60
2023-03-26T00:19:36.751Z,90.80
2023-03-26T00:22:04.832Z,90.80
2023-03-26T00:24:33.080Z,91.00
2023-03-26T00:27:01.439Z,91.00
2023-03-26T00:29:33.722Z,91.10
2023-03-26T00:32:02.279Z,91.10
2023-03-26T00:34:31.400Z,91.10
2023-03-26T00:37:02.943Z,91.20
2023-03-26T00:39:36.120Z,91.20
2023-03-26T00:42:07.370Z,91.30
2023-03-26T00:44:35.798Z,91.20
2023-03-26T00:47:04.667Z,91.50
2023-03-26T00:49:32.933Z,91.30
2023-03-26T00:52:03.445Z,91.30
2023-03-26T00:54:34.723Z,91.30
2023-03-26T00:57:03.041Z,91.40
2023-03-26T00:59:32.301Z,91.60
2023-03-26T01:02:00.746Z,91.70
2023-03-26T01:04:35.055Z,91.40
2023-03-26T01:07:23.094Z,91.60
2023-03-26T01:09:51.754Z,91.50
2023-03-26T01:12:21.126Z,91.50
2023-03-26T01:14:53.041Z,91.70
2023-03-26T01:17:22.411Z,91.70
2023-03-26T01:19:50.910Z,91.80
2023-03-26T01:22:23.376Z,91.90
2023-03-26T01:24:56.874Z,92.00
2023-03-26T01:27:26.188Z,92.10
2023-03-26T01:29:59.712Z,92.10
2023-03-26T01:32:46.310Z,92.10
2023-03-26T01:35:17.780Z,92.40
2023-03-26T01:37:47.248Z,92.30
2023-03-26T01:40:43.250Z,92.50
2023-03-26T01:43:14.580Z,92.50
2023-03-26T01:45:45.192Z,92.70
2023-03-26T01:48:13.833Z,92.80
2023-03-26T01:50:44.905Z,92.70
2023-03-26T01:53:14.167Z,92.90
2023-03-26T01:55:50.154Z,93.00
2023-03-26T01:58:28.037Z,93.50
2023-03-26T02:01:02.594Z,93.50
2023-03-26T02:03:32.805Z,93.40
2023-03-26T02:06:03.651Z,93.50
2023-03-26T02:08:41.790Z,93.70
2023-03-26T02:11:11.947Z,93.80
2023-03-26T02:13:41.028Z,93.80
2023-03-26T02:16:10.371Z,93.70
2023-03-26T02:18:39.431Z,94.20
2023-03-26T02:21:12.876Z,94.10
2023-03-26T02:23:45.218Z,94.30
2023-03-26T02:26:14.840Z,94.50
2023-03-26T02:28:58.302Z,94.50
2023-03-26T02:31:26.915Z,94.50
2023-03-26T02:33:56.019Z,94.30
2023-03-26T02:36:27.694Z,94.10
2023-03-26T02:39:00.688Z,94.00
2023-03-26T02:41:31.820Z,94.00
2023-03-26T02:44:11.616Z,93.70
2023-03-26T02:46:57.940Z,93.70
2023-03-26T02:49:48.715Z,94.10
2023-03-26T02:52:36.591Z,93.70
2023-03-26T02:55:07.153Z,94.00
2023-03-26T02:57:36.106Z,94.00
2023-03-26T03:00:14.711Z,94.10
2023-03-26T03:02:49.520Z,93.80
2023-03-26T03:05:47.647Z,93.80
2023-03-26T03:08:36.368Z,93.90
2023-03-26T03:11:30.981Z,93.80
2023-03-26T03:14:01.323Z,93.80
2023-03-26T03:16:31.862Z,93.70
2023-03-26T03:19:06.574Z,93.90
2023-03-26T03:21:39.492Z,94.00
2023-03-26T03:24:09.138Z,93.80
2023-03-26T03:26:42.737Z,93.90
2023-03-26T03:29:19.987Z,94.20
2023-03-26T03:31:48.924Z,93.60
2023-03-26T03:34:38.977Z,93.90
2023-03-26T03:37:07.756Z,94.00
2023-03-26T03:39:43.864Z,94.10
2023-03-26T03:42:14.288Z,93.90
2023-03-26T03:44:43.194Z,94.30
2023-03-26T03:47:26.288Z,94.30
2023-03-26T03:49:54.463Z,94.40
2023-03-26T03:52:22.876Z,94.40
2023-03-26T03:54:51.573Z,94.40
2023-03-26T03:57:33.739Z,94.70
2023-03-26T04:00:12.264Z,94.50
2023-03-26T04:02:46.671Z,94.60
2023-03-26T04:05:17.499Z,94.80
2023-03-26T04:07:49.235Z,95.00
2023-03-26T04:10:29.179Z,95.00
2023-03-26T04:13:08.354Z,95.20
2023-03-26T04:15:57.224Z,95.30
2023-03-26T04:18:26.842Z,95.30
2023-03-26T04:20:56.800Z,95.60
2023-03-26T04:23:29.809Z,95.60
2023-03-26T04:26:05.762Z,95.60
2023-03-26T04:29:01.438Z,95.80
2023-03-26T04:31:31.790Z,95.80
2023-03-26T04:34:06.748Z,95.40
2023-03-26T04:36:46.700Z,95.30
2023-03-26T04:39:16.903Z,95.30
2023-03-26T04:42:03.194Z,95.10
2023-03-26T04:44:42.836Z,94.90
2023-03-26T04:47:13.794Z,95.00
2023-03-26T04:49:47.833Z,94.90
2023-03-26T04:52:17.186Z,95.00
2023-03-26T04:55:17.334Z,94.70
2023-03-26T04:57:50.793Z,94.70
2023-03-26T05:00:44.897Z,94.60
2023-03-26T05:03:13.694Z,93.80
2023-03-26T05:05:44.013Z,93.80
2023-03-26T05:08:12.928Z,93.50
2023-03-26T05:10:41.987Z,93.00
2023-03-26T05:13:17.281Z,92.90
2023-03-26T05:15:50.985Z,92.80
2023-03-26T05:18:34.884Z,92.90
2023-03-26T05:21:03.913Z,92.40
2023-03-26T05:23:32.947Z,92.70
2023-03-26T05:26:16.975Z,92.00
2023-03-26T05:28:45.988Z,91.80
2023-03-26T05:31:21.786Z,91.50
2023-03-26T05:33:55.449Z,91.10
2023-03-26T05:36:26.465Z,90.80
2023-03-26T05:39:05.567Z,90.00
2023-03-26T05:41:53.360Z,89.10
2023-03-26T05:44:29.187Z,88.30
2023-03-26T05:46:57.841Z,87.00
2023-03-26T05:49:27.057Z,87.20
2023-03-26T05:51:55.734Z,87.00
2023-03-26T05:54:47.118Z,84.10
2023-03-26T05:57:44.844Z,80.50
2023-03-26T06:00:34.191Z,78.60
2023-03-26T06:03:02.542Z,78.40
2023-03-26T06:06:04.394Z,77.30
2023-03-26T06:09:02.073Z,77.30
2023-03-26T06:11:32.992Z,75.30
2023-03-26T06:14:03.523Z,77.10
2023-03-26T06:16:32.678Z,73.80
2023-03-26T06:19:18.787Z,72.60
2023-03-26T06:21:53.399Z,72.20
2023-03-26T06:24:25.112Z,71.90
2023-03-26T06:27:12.016Z,71.30
2023-03-26T06:29:58.507Z,67.90
2023-03-26T06:32:46.797Z,65.00
2023-03-26T06:35:20.268Z,63.50
2023-03-26T06:37:48.964Z,65.00
2023-03-26T06:40:17.165Z,63.50
2023-03-26T06:43:09.008Z,61.70
2023-03-26T06:46:02.119Z,60.80
2023-03-26T06:48:40.682Z,59.20
2023-03-26T06:51:29.032Z,59.00
2023-03-26T06:54:09.706Z,57.50
2023-03-26T06:57:10.659Z,56.10
2023-03-26T07:00:14.569Z,56.20
2023-03-26T07:03:03.425Z,53.50
2023-03-26T07:05:50.376Z,52.90
2023-03-26T07:08:38.098Z,52.70
2023-03-26T07:11:35.758Z,51.60
2023-03-26T07:14:22.317Z,49.30
2023-03-26T07:17:09.498Z,49.00
2023-03-26T07:19:53.800Z,48.90
2023-03-26T07:22:28.830Z,47.40
2023-03-26T07:25:16.369Z,45.50
2023-03-26T07:28:12.271Z,44.90
2023-03-26T07:31:07.817Z,44.70
2023-03-26T07:33:47.392Z,42.30
2023-03-26T07:36:28.767Z,42.20
2023-03-26T07:39:27.299Z,42.50
2023-03-26T07:42:30.723Z,41.70
2023-03-26T07:45:36.737Z,40.60
2023-03-26T07:48:27.691Z,40.40
2023-03-26T07:51:14.516Z,39.60
2023-03-26T07:54:01.465Z,38.10
2023-03-26T07:57:12.287Z,37.90
2023-03-26T08:00:01.775Z,37.90
2023-03-26T08:03:03.273Z,37.10
2023-03-26T08:06:01.232Z,37.10
2023-03-26T08:08:50.998Z,30.00
2023-03-26T08:11:56.206Z,29.10
2023-03-26T08:14:30.719Z,31.00
2023-03-26T08:17:16.727Z,31.40
2023-03-26T08:19:45.242Z,29.80
2023-03-26T08:22:32.049Z,32.70
2023-03-26T08:25:18.214Z,30.90
2023-03-26T08:28:11.308Z,30.60
2023-03-26T08:30:39.393Z,34.00
2023-03-26T08:33:07.492Z,30.90
2023-03-26T08:35:35.862Z,32.00
2023-03-26T08:38:06.312Z,30.30
2023-03-26T08:40:34.546Z,33.40
2023-03-26T08:43:21.377Z,30.90
2023-03-26T08:45:51.910Z,30.00
2023-03-26T08:48:25.943Z,30.70
2023-03-26T08:50:54.235Z,31.40
2023-03-26T08:53:37.962Z,31.70
2023-03-26T08:56:20.974Z,30.00
2023-03-26T08:59:11.847Z,32.80
2023-03-26T09:01:58.605Z,29.80
2023-03-26T09:04:29.374Z,30.90
2023-03-26T09:07:07.350Z,30.70
2023-03-26T09:09:38.732Z,29.60
2023-03-26T09:12:13.125Z,29.80
2023-03-26T09:14:44.439Z,31.70
2023-03-26T09:17:13.979Z,31.40
2023-03-26T09:20:01.041Z,32.10
2023-03-26T09:22:47.828Z,29.90
2023-03-26T09:25:35.680Z,27.70
2023-03-26T09:28:23.195Z,30.30
2023-03-26T09:31:10.005Z,32.20
2023-03-26T09:33:59.773Z,32.20
2023-03-26T09:36:41.544Z,28.20
2023-03-26T09:39:37.909Z,30.20
2023-03-26T09:42:28.929Z,30.20
2023-03-26T09:45:17.868Z,28.20
2023-03-26T09:48:06.021Z,29.60
2023-03-26T09:50:39.921Z,28.00
2023-03-26T09:53:27.437Z,27.70
2023-03-26T09:56:07.626Z,29.10
2023-03-26T09:58:48.888Z,28.10
2023-03-26T10:01:17.134Z,25.30
2023-03-26T10:03:53.157Z,27.50
2023-03-26T10:06:26.438Z,29.00
2023-03-26T10:09:12.869Z,29.00
2023-03-26T10:11:53.260Z,30.10
2023-03-26T10:14:26.516Z,33.10
2023-03-26T10:17:20.767Z,30.40
2023-03-26T10:19:49.008Z,27.90
2023-03-26T10:22:23.429Z,30.00
2023-03-26T10:25:10.362Z,28.80
2023-03-26T10:27:38.361Z,29.90
2023-03-26T10:30:15.539Z,28.40
2023-03-26T10:32:45.808Z,28.70
2023-03-26T10:35:32.757Z,29.30
2023-03-26T10:38:15.125Z,26.10
2023-03-26T10:40:46.753Z,26.80
2023-03-26T10:43:33.355Z,28.20
2023-03-26T10:46:16.801Z,28.10
2023-03-26T10:48:45.139Z,27.60
2023-03-26T10:51:26.258Z,28.70
2023-03-26T10:54:17.133Z,28.80
2023-03-26T10:56:46.638Z,27.10
2023-03-26T10:59:16.243Z,29.30
2023-03-26T11:02:05.571Z,29.80
2023-03-26T11:04:53.593Z,30.00
2023-03-26T11:07:40.285Z,27.80
2023-03-26T11:10:31.640Z,29.60
2023-03-26T11:13:04.840Z,28.70
2023-03-26T11:15:38.167Z,31.00
2023-03-26T11:18:06.473Z,30.00
2023-03-26T11:20:53.621Z,28.00
2023-03-26T11:24:05.420Z,28.10
2023-03-26T11:26:56.077Z,26.70
2023-03-26T11:29:30.948Z,25.80
2023-03-26T11:32:11.500Z,29.00
2023-03-26T11:34:47.467Z,26.30
2023-03-26T11:37:35.850Z,27.30
2023-03-26T11:40:08.738Z,28.20
2023-03-26T11:42:37.356Z,26.90
2023-03-26T11:45:16.986Z,25.00
2023-03-26T11:47:57.999Z,26.80
2023-03-26T11:50:27.888Z,27.30
2023-03-26T11:53:03.747Z,24.70
2023-03-26T11:55:32.091Z,26.20
2023-03-26T11:58:01.913Z,26.40
2023-03-26T12:00:30.773Z,28.10
2023-03-26T12:02:59.720Z,26.40
2023-03-26T12:05:47.140Z,28.00
2023-03-26T12:08:22.079Z,25.80
2023-03-26T12:11:04.218Z,26.70
2023-03-26T12:13:38.328Z,24.40
2023-03-26T12:16:11.164Z,25.00
2023-03-26T12:18:41.474Z,25.70
2023-03-26T12:21:11.693Z,25.10
2023-03-26T12:23:44.325Z,25.90
2023-03-26T12:26:18.189Z,26.10
2023-03-26T12:28:47.286Z,26.60
2023-03-26T12:31:19.605Z,25.90
2023-03-26T12:34:08.167Z,24.70
2023-03-26T12:36:36.974Z,24.80
2023-03-26T12:40:10.276Z,25.60
2023-03-26T12:44:44.347Z,26.30
2023-03-26T12:45:38.366Z,25.50
2023-03-26T12:48:08.351Z,25.80
2023-03-26T12:50:52.999Z,24.40
2023-03-26T12:53:24.338Z,24.00
2023-03-26T12:56:07.846Z,25.60
2023-03-26T12:59:02.153Z,25.40
2023-03-26T13:01:38.796Z,25.40
2023-03-26T13:04:22.306Z,24.50
2023-03-26T13:07:13.846Z,25.60
2023-03-26T13:09:52.771Z,24.10
2023-03-26T13:12:21.249Z,24.00
2023-03-26T13:14:56.904Z,25.00
2023-03-26T13:17:34.160Z,25.10
2023-03-26T13:20:12.601Z,24.40
2023-03-26T13:22:47.042Z,25.50
2023-03-26T13:25:15.342Z,25.80
2023-03-26T13:27:55.507Z,23.90
2023-03-26T13:30:29.750Z,23.30
2023-03-26T13:33:01.906Z,23.40
2023-03-26T13:35:33.583Z,25.10
2023-03-26T13:38:11.758Z,25.70
2023-03-26T13:40:48.016Z,26.30
2023-03-26T13:43:22.694Z,25.60
2023-03-26T13:45:56.695Z,25.70
2023-03-26T13:48:27.622Z,25.00
2023-03-26T13:51:02.514Z,24.80
2023-03-26T13:53:38.199Z,24.80
2023-03-26T13:56:07.344Z,24.30
2023-03-26T13:58:38.468Z,24.30
2023-03-26T14:01:18.692Z,24.70
2023-03-26T14:03:49.970Z,24.40
2023-03-26T14:06:36.905Z,24.60
2023-03-26T14:09:12.129Z,24.50
2023-03-26T14:11:50.857Z,24.30
2023-03-26T14:14:24.148Z,24.40
2023-03-26T14:16:55.222Z,24.60
2023-03-26T14:19:36.454Z,24.20
2023-03-26T14:22:23.109Z,24.30
2023-03-26T14:25:09.938Z,24.30
2023-03-26T14:27:41.348Z,24.70
2023-03-26T14:30:12.755Z,24.70
2023-03-26T14:32:44.442Z,25.10
2023-03-26T14:35:20.708Z,24.70
2023-03-26T14:38:04.084Z,25.20
2023-03-26T14:40:48.450Z,25.40
2023-03-26T14:43:25.661Z,25.30
2023-03-26T14:46:12.425Z,25.30
2023-03-26T14:49:03.486Z,25.30
2023-03-26T14:51:31.616Z,25.50
2023-03-26T14:54:09.116Z,25.70
2023-03-26T14:56:44.002Z,26.20
2023-03-26T14:59:22.080Z,26.70
2023-03-26T15:01:50.125Z,26.70
2023-03-26T15:04:18.261Z,27.10
2023-03-26T15:06:52.484Z,27.30
2023-03-26T15:09:20.976Z,27.40
2023-03-26T15:11:49.070Z,27.70
2023-03-26T15:14:23.258Z,27.60
2023-03-26T15:17:02.186Z,27.70
2023-03-26T15:19:48.917Z,28.20
2023-03-26T15:22:32.185Z,28.20
2023-03-26T15:25:06.364Z,28.30
2023-03-26T15:27:34.361Z,28.50
2023-03-26T15:30:02.547Z,28.60
2023-03-26T15:32:53.098Z,28.80
2023-03-26T15:35:57.723Z,28.80
2023-03-26T15:38:47.195Z,29.10
2023-03-26T15:41:22.427Z,29.60
2023-03-26T15:44:22.840Z,29.50
2023-03-26T15:46:48.454Z,30.00
2023-03-26T15:49:27.486Z,30.60
2023-03-26T15:52:14.519Z,30.60
2023-03-26T15:55:08.932Z,30.90
2023-03-26T15:57:42.405Z,31.60
2023-03-26T16:00:23.068Z,32.40
2023-03-26T16:03:10.037Z,31.80
2023-03-26T16:05:56.781Z,32.60
2023-03-26T16:08:27.899Z,32.70
2023-03-26T16:10:57.341Z,33.00
2023-03-26T16:13:26.534Z,33.60
2023-03-26T16:16:11.360Z,34.00
2023-03-26T16:18:43.720Z,34.60
2023-03-26T16:21:31.328Z,34.60
2023-03-26T16:24:03.644Z,34.90
2023-03-26T16:26:53.476Z,35.30
2023-03-26T16:29:30.619Z,35.40
2023-03-26T16:32:01.675Z,36.50
2023-03-26T16:34:42.509Z,37.20
2023-03-26T16:37:40.295Z,38.10
2023-03-26T16:40:26.719Z,37.60
2023-03-26T16:42:57.933Z,38.00
2023-03-26T16:45:34.298Z,38.40
2023-03-26T16:48:05.411Z,38.90
2023-03-26T16:50:55.756Z,38.80
2023-03-26T16:53:24.171Z,39.60
2023-03-26T16:56:26.662Z,41.00
2023-03-26T16:59:21.010Z,40.80
2023-03-26T17:01:57.015Z,40.00
2023-03-26T17:04:29.654Z,40.80
2023-03-26T17:07:02.085Z,41.80
2023-03-26T17:09:34.410Z,42.10
2023-03-26T17:12:14.731Z,42.10
2023-03-26T17:15:00.409Z,42.10
2023-03-26T17:17:37.253Z,42.60
2023-03-26T17:20:14.436Z,42.70
2023-03-26T17:22:52.570Z,42.50
2023-03-26T17:25:43.080Z,43.30
2023-03-26T17:28:41.013Z,44.00
2023-03-26T17:31:17.243Z,44.40
2023-03-26T17:33:46.535Z,44.70
2023-03-26T17:36:16.596Z,45.20
2023-03-26T17:38:47.902Z,45.70
2023-03-26T17:41:36.075Z,46.10
2023-03-26T17:44:24.208Z,46.30
2023-03-26T17:46:52.779Z,45.30
2023-03-26T17:49:31.407Z,46.10
2023-03-26T17:52:38.173Z,46.20
2023-03-26T17:55:08.579Z,47.10
2023-03-26T17:57:44.359Z,47.00
2023-03-26T18:00:18.829Z,47.50
2023-03-26T18:02:57.868Z,47.80
2023-03-26T18:05:29.548Z,48.30
2023-03-26T18:08:00.580Z,48.70
2023-03-26T18:10:47.362Z,48.70
2023-03-26T18:13:18.585Z,49.50
2023-03-26T18:15:46.853Z,49.80
2023-03-26T18:18:21.055Z,50.70
2023-03-26T18:20:52.634Z,50.60
2023-03-26T18:23:22.773Z,50.90
2023-03-26T18:25:55.427Z,50.90
2023-03-26T18:28:29.983Z,51.30
2023-03-26T18:31:07.119Z,51.70
2023-03-26T18:33:45.633Z,52.30
2023-03-26T18:36:18.953Z,52.20
2023-03-26T18:38:49.334Z,52.70
2023-03-26T18:41:22.552Z,53.10
2023-03-26T18:43:50.771Z,53.40
2023-03-26T18:46:23.554Z,53.70
2023-03-26T18:48:51.892Z,53.90
2023-03-26T18:51:23.455Z,54.20
2023-03-26T18:53:54.483Z,54.60
2023-03-26T18:56:32.113Z,55.00
2023-03-26T18:59:01.279Z,55.60
2023-03-26T19:01:31.181Z,56.00
2023-03-26T19:04:04.252Z,56.20
2023-03-26T19:06:36.416Z,56.60
2023-03-26T19:09:23.750Z,56.80
2023-03-26T19:11:57.677Z,57.10
2023-03-26T19:14:26.728Z,57.30
2023-03-26T19:17:00.003Z,57.80
2023-03-26T19:19:37.891Z,57.90
2023-03-26T19:22:08.765Z,58.30
2023-03-26T19:24:39.652Z,58.50
2023-03-26T19:27:10.185Z,58.80
2023-03-26T19:29:38.691Z,59.30
2023-03-26T19:32:17.968Z,59.40
2023-03-26T19:34:47.293Z,59.90
2023-03-26T19:37:21.998Z,60.00
2023-03-26T19:39:54.271Z,60.30
2023-03-26T19:42:26.893Z,60.50
2023-03-26T19:45:16.652Z,60.80
2023-03-26T19:47:48.697Z,60.90
2023-03-26T19:50:30.525Z,60.50
2023-03-26T19:53:22.908Z,60.90
2023-03-26T19:55:57.771Z,61.20
2023-03-26T19:58:28.929Z,61.70
2023-03-26T20:01:00.055Z,62.00
2023-03-26T20:03:38.422Z,62.40
2023-03-26T20:06:09.357Z,62.30
2023-03-26T20:08:37.568Z,62.60
2023-03-26T20:11:05.739Z,63.20
2023-03-26T20:13:34.745Z,63.20
2023-03-26T20:16:07.651Z,63.50
2023-03-26T20:18:35.881Z,64.10
2023-03-26T20:21:09.555Z,63.90
2023-03-26T20:23:37.935Z,64.30
2023-03-26T20:26:06.364Z,64.10
2023-03-26T20:28:47.822Z,65.20
2023-03-26T20:31:18.248Z,65.00
2023-03-26T20:33:48.921Z,65.70
2023-03-26T20:36:34.147Z,66.10
2023-03-26T20:39:06.270Z,65.80
2023-03-26T20:41:39.394Z,66.40
2023-03-26T20:44:15.891Z,66.70
2023-03-26T20:46:44.607Z,67.00
2023-03-26T20:49:13.135Z,67.40
2023-03-26T20:51:46.059Z,67.60
2023-03-26T20:54:16.241Z,67.70
2023-03-26T20:56:44.625Z,68.00
2023-03-26T20:59:15.118Z,68.00
2023-03-26T21:01:43.363Z,68.80
2023-03-26T21:04:12.114Z,69.30
2023-03-26T21:06:43.734Z,69.20
2023-03-26T21:09:16.360Z,69.90
2023-03-26T21:11:47.088Z,70.30
2023-03-26T21:14:26.033Z,69.90
2023-03-26T21:16:54.503Z,69.70
2023-03-26T21:19:22.736Z,70.20
2023-03-26T21:22:11.033Z,70.20
2023-03-26T21:24:45.553Z,70.70
2023-03-26T21:27:23.183Z,71.20
2023-03-26T21:29:54.573Z,70.70
2023-03-26T21:32:23.094Z,71.70
2023-03-26T21:34:58.657Z,71.60
2023-03-26T21:37:28.005Z,72.00
2023-03-26T21:39:56.280Z,72.60
2023-03-26T21:42:27.195Z,72.40
2023-03-26T21:44:55.816Z,72.40
2023-03-26T21:47:23.924Z,73.40
2023-03-26T21:49:52.768Z,73.20
2023-03-26T21:52:23.037Z,73.30
2023-03-26T21:54:51.435Z,73.70
2023-03-26T21:57:29.510Z,74.20
2023-03-26T22:00:12.045Z,74.70
2023-03-26T22:02:48.061Z,74.50
2023-03-26T22:05:16.362Z,74.70
2023-03-26T22:07:56.966Z,74.40
2023-03-26T22:10:25.321Z,74.90
2023-03-26T22:12:53.257Z,75.30
2023-03-26T22:15:22.264Z,74.80
2023-03-26T22:17:56.495Z,75.70
2023-03-26T22:20:25.513Z,75.80
2023-03-26T22:22:56.371Z,75.50
2023-03-26T22:25:24.616Z,75.60
2023-03-26T22:27:53.093Z,75.60
2023-03-26T22:30:21.535Z,76.00
2023-03-26T22:32:50.538Z,75.60
2023-03-26T22:35:18.872Z,76.00
2023-03-26T22:37:48.079Z,76.10
2023-03-26T22:40:16.602Z,76.10
2023-03-26T22:42:45.033Z,76.40
2023-03-26T22:45:13.165Z,76.40
2023-03-26T22:47:45.309Z,76.90
2023-03-26T22:50:13.709Z,77.50
2023-03-26T22:52:42.040Z,77.50
2023-03-26T22:55:11.414Z,77.70
2023-03-26T22:57:40.164Z,78.40
2023-03-26T23:00:19.841Z,78.10
2023-03-26T23:02:48.985Z,78.40
2023-03-26T23:05:19.974Z,78.70
2023-03-26T23:07:49.373Z,78.40
2023-03-26T23:10:17.623Z,79.00
2023-03-26T23:12:46.060Z,78.80
2023-03-26T23:15:15.063Z,78.90
2023-03-26T23:17:43.298Z,78.80
2023-03-26T23:20:17.624Z,78.90
2023-03-26T23:22:46.204Z,79.00
2023-03-26T23:25:14.208Z,79.30
2023-03-26T23:27:42.582Z,79.60
2023-03-26T23:30:11.321Z,79.80
2023-03-26T23:32:39.576Z,79.60
2023-03-26T23:35:11.584Z,79.90
2023-03-26T23:37:42.718Z,80.00
2023-03-26T23:40:11.327Z,80.30
2023-03-26T23:42:39.346Z,80.60
2023-03-26T23:45:08.823Z,80.70
2023-03-26T23:47:37.685Z,80.80
2023-03-26T23:50:08.465Z,80.70
2023-03-26T23:52:37.986Z,81.10
2023-03-26T23:55:06.477Z,81.40
2023-03-26T23:57:34.575Z,82.10
